sensor_id;sensor_type;location;lat;lon;timestamp;P1;durP1;ratioP1;P2;durP2;ratioP2
23123;SDS011;11731;48.592;8.858;2023-04-25T00:02:01;3.93;;;3.40;;
23123;SDS011;11731;48.592;8.858;2023-04-25T00:04:28;3.37;;;3.00;;
23123;SDS011;11731;48.592;8.858;2023-04-25T00:06:58;5.93;;;3.20;;
23123;SDS011;11731;48.592;8.858;2023-04-25T00:09:27;6.30;;;3.03;;
23123;SDS011;11731;48.592;8.858;2023-04-25T00:11:54;3.27;;;2.90;;
23123;SDS011;11731;48.592;8.858;2023-04-25T00:14:21;3.83;;;2.90;;
23123;SDS011;11731;48.592;8.858;2023-04-25T00:16:49;4.03;;;2.67;;
23123;SDS011;11731;48.592;8.858;2023-04-25T00:19:16;2.87;;;2.63;;
23123;SDS011;11731;48.592;8.858;2023-04-25T00:21:43;4.80;;;2.60;;
23123;SDS011;11731;48.592;8.858;2023-04-25T00:24:11;4.23;;;2.93;;
23123;SDS011;11731;48.592;8.858;2023-04-25T00:26:38;3.23;;;2.53;;
23123;SDS011;11731;48.592;8.858;2023-04-25T00:29:05;3.07;;;2.20;;
23123;SDS011;11731;48.592;8.858;2023-04-25T00:31:31;3.90;;;2.50;;
23123;SDS011;11731;48.592;8.858;2023-04-25T00:34:00;4.23;;;2.80;;
23123;SDS011;11731;48.592;8.858;2023-04-25T00:36:27;3.00;;;2.47;;
23123;SDS011;11731;48.592;8.858;2023-04-25T00:38:53;2.40;;;2.20;;
23123;SDS011;11731;48.592;8.858;2023-04-25T00:41:20;2.20;;;2.00;;
23123;SDS011;11731;48.592;8.858;2023-04-25T00:43:48;3.07;;;2.50;;
23123;SDS011;11731;48.592;8.858;2023-04-25T00:46:15;2.60;;;2.40;;
23123;SDS011;11731;48.592;8.858;2023-04-25T00:48:42;3.27;;;2.80;;
23123;SDS011;11731;48.592;8.858;2023-04-25T00:51:10;4.33;;;2.70;;
23123;SDS011;11731;48.592;8.858;2023-04-25T00:53:42;5.47;;;2.50;;
23123;SDS011;11731;48.592;8.858;2023-04-25T00:56:11;3.80;;;2.63;;
23123;SDS011;11731;48.592;8.858;2023-04-25T00:58:38;3.33;;;2.47;;
23123;SDS011;11731;48.592;8.858;2023-04-25T01:01:06;4.07;;;3.10;;
23123;SDS011;11731;48.592;8.858;2023-04-25T01:03:34;4.27;;;3.00;;
23123;SDS011;11731;48.592;8.858;2023-04-25T01:06:05;4.47;;;3.20;;
23123;SDS011;11731;48.592;8.858;2023-04-25T01:08:35;5.10;;;3.23;;
23123;SDS011;11731;48.592;8.858;2023-04-25T01:11:02;4.43;;;3.50;;
23123;SDS011;11731;48.592;8.858;2023-04-25T01:13:30;4.23;;;3.70;;
23123;SDS011;11731;48.592;8.858;2023-04-25T01:15:58;4.13;;;2.93;;
23123;SDS011;11731;48.592;8.858;2023-04-25T01:18:25;2.97;;;2.73;;
23123;SDS011;11731;48.592;8.858;2023-04-25T01:20:52;4.23;;;3.10;;
23123;SDS011;11731;48.592;8.858;2023-04-25T01:23:22;4.63;;;3.33;;
23123;SDS011;11731;48.592;8.858;2023-04-25T01:25:49;3.97;;;3.13;;
23123;SDS011;11731;48.592;8.858;2023-04-25T01:28:16;7.13;;;3.20;;
23123;SDS011;11731;48.592;8.858;2023-04-25T01:30:43;3.67;;;3.07;;
23123;SDS011;11731;48.592;8.858;2023-04-25T01:33:11;3.57;;;3.00;;
23123;SDS011;11731;48.592;8.858;2023-04-25T01:35:39;3.53;;;3.10;;
23123;SDS011;11731;48.592;8.858;2023-04-25T01:38:06;4.53;;;3.07;;
23123;SDS011;11731;48.592;8.858;2023-04-25T01:40:35;5.00;;;2.83;;
23123;SDS011;11731;48.592;8.858;2023-04-25T01:43:05;3.10;;;2.80;;
23123;SDS011;11731;48.592;8.858;2023-04-25T01:45:33;3.47;;;3.07;;
23123;SDS011;11731;48.592;8.858;2023-04-25T01:48:01;4.37;;;3.30;;
23123;SDS011;11731;48.592;8.858;2023-04-25T01:50:28;4.40;;;3.47;;
23123;SDS011;11731;48.592;8.858;2023-04-25T01:52:55;3.47;;;3.17;;
23123;SDS011;11731;48.592;8.858;2023-04-25T01:55:23;4.23;;;3.30;;
23123;SDS011;11731;48.592;8.858;2023-04-25T01:57:51;4.93;;;2.90;;
23123;SDS011;11731;48.592;8.858;2023-04-25T02:00:18;3.73;;;3.40;;
23123;SDS011;11731;48.592;8.858;2023-04-25T02:02:45;3.70;;;3.33;;
23123;SDS011;11731;48.592;8.858;2023-04-25T02:05:13;3.87;;;3.47;;
23123;SDS011;11731;48.592;8.858;2023-04-25T02:07:40;4.37;;;3.10;;
23123;SDS011;11731;48.592;8.858;2023-04-25T02:10:07;3.93;;;3.60;;
23123;SDS011;11731;48.592;8.858;2023-04-25T02:12:35;3.47;;;3.17;;
23123;SDS011;11731;48.592;8.858;2023-04-25T02:15:04;4.50;;;3.10;;
23123;SDS011;11731;48.592;8.858;2023-04-25T02:17:31;3.77;;;2.90;;
23123;SDS011;11731;48.592;8.858;2023-04-25T02:19:58;4.43;;;3.00;;
23123;SDS011;11731;48.592;8.858;2023-04-25T02:22:25;3.83;;;2.90;;
23123;SDS011;11731;48.592;8.858;2023-04-25T02:24:55;3.23;;;2.87;;
23123;SDS011;11731;48.592;8.858;2023-04-25T02:27:22;3.80;;;2.93;;
23123;SDS011;11731;48.592;8.858;2023-04-25T02:29:48;4.13;;;3.40;;
23123;SDS011;11731;48.592;8.858;2023-04-25T02:32:17;5.00;;;3.90;;
23123;SDS011;11731;48.592;8.858;2023-04-25T02:34:43;3.87;;;3.50;;
23123;SDS011;11731;48.592;8.858;2023-04-25T02:37:10;5.67;;;3.33;;
23123;SDS011;11731;48.592;8.858;2023-04-25T02:39:37;5.33;;;3.63;;
23123;SDS011;11731;48.592;8.858;2023-04-25T02:42:04;4.67;;;3.53;;
23123;SDS011;11731;48.592;8.858;2023-04-25T02:44:31;4.20;;;3.40;;
23123;SDS011;11731;48.592;8.858;2023-04-25T02:46:58;3.90;;;3.50;;
23123;SDS011;11731;48.592;8.858;2023-04-25T02:49:26;3.73;;;3.40;;
23123;SDS011;11731;48.592;8.858;2023-04-25T02:51:53;4.97;;;3.17;;
23123;SDS011;11731;48.592;8.858;2023-04-25T02:54:19;6.23;;;3.77;;
23123;SDS011;11731;48.592;8.858;2023-04-25T02:56:46;7.43;;;3.70;;
23123;SDS011;11731;48.592;8.858;2023-04-25T02:59:13;4.63;;;3.40;;
23123;SDS011;11731;48.592;8.858;2023-04-25T03:01:40;3.77;;;3.37;;
23123;SDS011;11731;48.592;8.858;2023-04-25T03:04:07;4.40;;;3.50;;
23123;SDS011;11731;48.592;8.858;2023-04-25T03:06:35;6.20;;;4.13;;
23123;SDS011;11731;48.592;8.858;2023-04-25T03:09:02;4.40;;;3.67;;
23123;SDS011;11731;48.592;8.858;2023-04-25T03:11:29;4.70;;;3.40;;
23123;SDS011;11731;48.592;8.858;2023-04-25T03:13:56;4.07;;;3.20;;
23123;SDS011;11731;48.592;8.858;2023-04-25T03:16:23;3.53;;;3.23;;
23123;SDS011;11731;48.592;8.858;2023-04-25T03:18:50;3.10;;;2.70;;
23123;SDS011;11731;48.592;8.858;2023-04-25T03:21:17;3.37;;;3.00;;
23123;SDS011;11731;48.592;8.858;2023-04-25T03:23:45;3.63;;;3.33;;
23123;SDS011;11731;48.592;8.858;2023-04-25T03:26:12;3.80;;;3.40;;
23123;SDS011;11731;48.592;8.858;2023-04-25T03:28:38;5.80;;;3.07;;
23123;SDS011;11731;48.592;8.858;2023-04-25T03:31:05;5.57;;;3.10;;
23123;SDS011;11731;48.592;8.858;2023-04-25T03:33:32;4.10;;;3.40;;
23123;SDS011;11731;48.592;8.858;2023-04-25T03:35:59;4.53;;;3.50;;
23123;SDS011;11731;48.592;8.858;2023-04-25T03:38:26;4.50;;;3.17;;
23123;SDS011;11731;48.592;8.858;2023-04-25T03:40:54;6.30;;;3.33;;
23123;SDS011;11731;48.592;8.858;2023-04-25T03:43:22;5.20;;;3.50;;
23123;SDS011;11731;48.592;8.858;2023-04-25T03:45:49;4.53;;;3.37;;
23123;SDS011;11731;48.592;8.858;2023-04-25T03:48:16;4.97;;;3.20;;
23123;SDS011;11731;48.592;8.858;2023-04-25T03:50:44;4.33;;;3.53;;
23123;SDS011;11731;48.592;8.858;2023-04-25T03:53:11;6.03;;;3.67;;
23123;SDS011;11731;48.592;8.858;2023-04-25T03:55:39;5.23;;;3.83;;
23123;SDS011;11731;48.592;8.858;2023-04-25T03:58:07;4.63;;;3.70;;
23123;SDS011;11731;48.592;8.858;2023-04-25T04:00:34;3.60;;;3.30;;
23123;SDS011;11731;48.592;8.858;2023-04-25T04:03:01;4.70;;;3.70;;
23123;SDS011;11731;48.592;8.858;2023-04-25T04:05:28;4.43;;;3.47;;
23123;SDS011;11731;48.592;8.858;2023-04-25T04:07:56;8.20;;;3.50;;
23123;SDS011;11731;48.592;8.858;2023-04-25T04:10:23;4.83;;;3.70;;
23123;SDS011;11731;48.592;8.858;2023-04-25T04:12:51;4.13;;;3.57;;
23123;SDS011;11731;48.592;8.858;2023-04-25T04:15:19;8.10;;;4.37;;
23123;SDS011;11731;48.592;8.858;2023-04-25T04:17:46;5.40;;;4.47;;
23123;SDS011;11731;48.592;8.858;2023-04-25T04:20:14;4.83;;;3.97;;
23123;SDS011;11731;48.592;8.858;2023-04-25T04:22:41;5.37;;;4.03;;
23123;SDS011;11731;48.592;8.858;2023-04-25T04:25:08;7.20;;;4.40;;
23123;SDS011;11731;48.592;8.858;2023-04-25T04:27:36;4.67;;;3.80;;
23123;SDS011;11731;48.592;8.858;2023-04-25T04:30:04;7.47;;;4.17;;
23123;SDS011;11731;48.592;8.858;2023-04-25T04:32:33;4.97;;;3.93;;
23123;SDS011;11731;48.592;8.858;2023-04-25T04:35:02;5.27;;;4.00;;
23123;SDS011;11731;48.592;8.858;2023-04-25T04:37:31;4.23;;;3.47;;
23123;SDS011;11731;48.592;8.858;2023-04-25T04:39:58;5.27;;;3.13;;
23123;SDS011;11731;48.592;8.858;2023-04-25T04:42:26;5.53;;;3.20;;
23123;SDS011;11731;48.592;8.858;2023-04-25T04:44:54;5.57;;;3.03;;
23123;SDS011;11731;48.592;8.858;2023-04-25T04:47:21;4.33;;;3.17;;
23123;SDS011;11731;48.592;8.858;2023-04-25T04:49:50;3.57;;;3.13;;
23123;SDS011;11731;48.592;8.858;2023-04-25T04:52:16;3.90;;;3.40;;
23123;SDS011;11731;48.592;8.858;2023-04-25T04:54:43;6.10;;;3.70;;
23123;SDS011;11731;48.592;8.858;2023-04-25T04:57:10;6.50;;;3.87;;
23123;SDS011;11731;48.592;8.858;2023-04-25T04:59:37;6.30;;;3.77;;
23123;SDS011;11731;48.592;8.858;2023-04-25T05:02:04;7.60;;;3.57;;
23123;SDS011;11731;48.592;8.858;2023-04-25T05:04:31;6.50;;;3.63;;
23123;SDS011;11731;48.592;8.858;2023-04-25T05:06:59;5.20;;;3.67;;
23123;SDS011;11731;48.592;8.858;2023-04-25T05:09:26;6.47;;;3.30;;
23123;SDS011;11731;48.592;8.858;2023-04-25T05:11:53;6.00;;;3.93;;
23123;SDS011;11731;48.592;8.858;2023-04-25T05:14:20;7.27;;;3.67;;
23123;SDS011;11731;48.592;8.858;2023-04-25T05:16:48;5.30;;;3.70;;
23123;SDS011;11731;48.592;8.858;2023-04-25T05:19:15;4.60;;;3.43;;
23123;SDS011;11731;48.592;8.858;2023-04-25T05:21:42;4.27;;;3.23;;
23123;SDS011;11731;48.592;8.858;2023-04-25T05:24:10;4.27;;;3.13;;
23123;SDS011;11731;48.592;8.858;2023-04-25T05:26:37;6.50;;;3.43;;
23123;SDS011;11731;48.592;8.858;2023-04-25T05:29:04;7.00;;;3.57;;
23123;SDS011;11731;48.592;8.858;2023-04-25T05:31:31;4.40;;;3.63;;
23123;SDS011;11731;48.592;8.858;2023-04-25T05:33:58;3.80;;;2.90;;
23123;SDS011;11731;48.592;8.858;2023-04-25T05:36:25;3.33;;;3.03;;
23123;SDS011;11731;48.592;8.858;2023-04-25T05:38:52;5.53;;;3.50;;
23123;SDS011;11731;48.592;8.858;2023-04-25T05:41:20;4.47;;;3.23;;
23123;SDS011;11731;48.592;8.858;2023-04-25T05:43:47;3.47;;;3.10;;
23123;SDS011;11731;48.592;8.858;2023-04-25T05:46:14;4.80;;;3.40;;
23123;SDS011;11731;48.592;8.858;2023-04-25T05:48:42;5.73;;;4.07;;
23123;SDS011;11731;48.592;8.858;2023-04-25T05:51:09;5.00;;;3.80;;
23123;SDS011;11731;48.592;8.858;2023-04-25T05:53:35;4.63;;;3.50;;
23123;SDS011;11731;48.592;8.858;2023-04-25T05:56:02;3.53;;;2.70;;
23123;SDS011;11731;48.592;8.858;2023-04-25T05:58:31;4.50;;;2.80;;
23123;SDS011;11731;48.592;8.858;2023-04-25T06:00:58;5.13;;;2.90;;
23123;SDS011;11731;48.592;8.858;2023-04-25T06:03:24;3.47;;;2.80;;
23123;SDS011;11731;48.592;8.858;2023-04-25T06:05:51;4.77;;;2.57;;
23123;SDS011;11731;48.592;8.858;2023-04-25T06:08:18;3.33;;;2.60;;
23123;SDS011;11731;48.592;8.858;2023-04-25T06:10:45;5.47;;;2.80;;
23123;SDS011;11731;48.592;8.858;2023-04-25T06:13:12;4.40;;;3.03;;
23123;SDS011;11731;48.592;8.858;2023-04-25T06:15:40;3.07;;;2.77;;
23123;SDS011;11731;48.592;8.858;2023-04-25T06:18:08;2.97;;;2.50;;
23123;SDS011;11731;48.592;8.858;2023-04-25T06:20:35;4.67;;;2.73;;
23123;SDS011;11731;48.592;8.858;2023-04-25T06:23:02;3.07;;;2.47;;
23123;SDS011;11731;48.592;8.858;2023-04-25T06:25:29;6.07;;;2.53;;
23123;SDS011;11731;48.592;8.858;2023-04-25T06:27:56;6.03;;;2.37;;
23123;SDS011;11731;48.592;8.858;2023-04-25T06:30:23;2.63;;;2.20;;
23123;SDS011;11731;48.592;8.858;2023-04-25T06:32:52;3.73;;;2.60;;
23123;SDS011;11731;48.592;8.858;2023-04-25T06:35:19;3.43;;;2.63;;
23123;SDS011;11731;48.592;8.858;2023-04-25T06:37:46;3.53;;;2.60;;
23123;SDS011;11731;48.592;8.858;2023-04-25T06:40:13;6.37;;;2.60;;
23123;SDS011;11731;48.592;8.858;2023-04-25T06:42:40;4.57;;;2.67;;
23123;SDS011;11731;48.592;8.858;2023-04-25T06:45:07;3.00;;;2.70;;
23123;SDS011;11731;48.592;8.858;2023-04-25T06:47:34;4.90;;;2.80;;
23123;SDS011;11731;48.592;8.858;2023-04-25T06:50:03;4.37;;;2.60;;
23123;SDS011;11731;48.592;8.858;2023-04-25T06:52:30;2.67;;;2.20;;
23123;SDS011;11731;48.592;8.858;2023-04-25T06:54:57;4.83;;;2.70;;
23123;SDS011;11731;48.592;8.858;2023-04-25T06:57:24;5.70;;;3.17;;
23123;SDS011;11731;48.592;8.858;2023-04-25T06:59:51;6.23;;;3.10;;
23123;SDS011;11731;48.592;8.858;2023-04-25T07:02:18;4.13;;;2.73;;
23123;SDS011;11731;48.592;8.858;2023-04-25T07:04:46;3.60;;;3.13;;
23123;SDS011;11731;48.592;8.858;2023-04-25T07:07:14;3.60;;;3.27;;
23123;SDS011;11731;48.592;8.858;2023-04-25T07:09:42;6.90;;;3.00;;
23123;SDS011;11731;48.592;8.858;2023-04-25T07:12:08;2.50;;;2.30;;
23123;SDS011;11731;48.592;8.858;2023-04-25T07:14:35;5.07;;;2.80;;
23123;SDS011;11731;48.592;8.858;2023-04-25T07:17:02;3.43;;;2.83;;
23123;SDS011;11731;48.592;8.858;2023-04-25T07:19:31;4.10;;;2.77;;
23123;SDS011;11731;48.592;8.858;2023-04-25T07:21:58;3.73;;;3.30;;
23123;SDS011;11731;48.592;8.858;2023-04-25T07:24:26;4.70;;;3.03;;
23123;SDS011;11731;48.592;8.858;2023-04-25T07:26:53;6.00;;;3.13;;
23123;SDS011;11731;48.592;8.858;2023-04-25T07:29:20;5.00;;;3.20;;
23123;SDS011;11731;48.592;8.858;2023-04-25T07:31:47;3.53;;;2.60;;
23123;SDS011;11731;48.592;8.858;2023-04-25T07:34:14;4.80;;;3.20;;
23123;SDS011;11731;48.592;8.858;2023-04-25T07:36:41;3.13;;;2.83;;
23123;SDS011;11731;48.592;8.858;2023-04-25T07:39:08;4.63;;;2.77;;
23123;SDS011;11731;48.592;8.858;2023-04-25T07:41:36;5.60;;;3.33;;
23123;SDS011;11731;48.592;8.858;2023-04-25T07:44:03;6.53;;;3.33;;
23123;SDS011;11731;48.592;8.858;2023-04-25T07:46:30;3.77;;;3.20;;
23123;SDS011;11731;48.592;8.858;2023-04-25T07:48:57;3.93;;;3.20;;
23123;SDS011;11731;48.592;8.858;2023-04-25T07:51:23;4.87;;;3.10;;
23123;SDS011;11731;48.592;8.858;2023-04-25T07:53:50;3.97;;;3.00;;
23123;SDS011;11731;48.592;8.858;2023-04-25T07:56:17;3.23;;;2.50;;
23123;SDS011;11731;48.592;8.858;2023-04-25T07:58:46;3.23;;;2.93;;
23123;SDS011;11731;48.592;8.858;2023-04-25T08:01:13;3.07;;;2.70;;
23123;SDS011;11731;48.592;8.858;2023-04-25T08:03:39;3.70;;;2.90;;
23123;SDS011;11731;48.592;8.858;2023-04-25T08:06:06;5.13;;;2.50;;
23123;SDS011;11731;48.592;8.858;2023-04-25T08:08:34;3.70;;;2.93;;
23123;SDS011;11731;48.592;8.858;2023-04-25T08:11:01;3.37;;;3.07;;
23123;SDS011;11731;48.592;8.858;2023-04-25T08:13:28;5.63;;;3.00;;
23123;SDS011;11731;48.592;8.858;2023-04-25T08:15:56;3.53;;;2.90;;
23123;SDS011;11731;48.592;8.858;2023-04-25T08:18:23;6.03;;;3.30;;
23123;SDS011;11731;48.592;8.858;2023-04-25T08:20:50;4.90;;;3.67;;
23123;SDS011;11731;48.592;8.858;2023-04-25T08:23:16;3.87;;;3.40;;
23123;SDS011;11731;48.592;8.858;2023-04-25T08:25:43;4.83;;;3.50;;
23123;SDS011;11731;48.592;8.858;2023-04-25T08:28:10;3.93;;;3.20;;
23123;SDS011;11731;48.592;8.858;2023-04-25T08:30:37;4.57;;;3.27;;
23123;SDS011;11731;48.592;8.858;2023-04-25T08:33:05;3.17;;;2.87;;
23123;SDS011;11731;48.592;8.858;2023-04-25T08:35:32;3.60;;;2.90;;
23123;SDS011;11731;48.592;8.858;2023-04-25T08:37:59;3.67;;;2.70;;
23123;SDS011;11731;48.592;8.858;2023-04-25T08:40:27;3.53;;;3.20;;
23123;SDS011;11731;48.592;8.858;2023-04-25T08:42:55;3.77;;;3.13;;
23123;SDS011;11731;48.592;8.858;2023-04-25T08:45:24;3.67;;;2.87;;
23123;SDS011;11731;48.592;8.858;2023-04-25T08:47:53;3.70;;;2.70;;
23123;SDS011;11731;48.592;8.858;2023-04-25T08:50:23;3.00;;;2.70;;
23123;SDS011;11731;48.592;8.858;2023-04-25T08:52:51;3.00;;;2.70;;
23123;SDS011;11731;48.592;8.858;2023-04-25T08:55:20;2.93;;;2.67;;
23123;SDS011;11731;48.592;8.858;2023-04-25T08:57:48;3.10;;;2.80;;
23123;SDS011;11731;48.592;8.858;2023-04-25T09:00:16;3.73;;;2.87;;
23123;SDS011;11731;48.592;8.858;2023-04-25T09:02:45;2.90;;;1.93;;
23123;SDS011;11731;48.592;8.858;2023-04-25T09:05:13;3.20;;;1.50;;
23123;SDS011;11731;48.592;8.858;2023-04-25T09:07:42;1.40;;;1.30;;
23123;SDS011;11731;48.592;8.858;2023-04-25T09:10:09;1.77;;;1.37;;
23123;SDS011;11731;48.592;8.858;2023-04-25T09:12:36;1.20;;;1.10;;
23123;SDS011;11731;48.592;8.858;2023-04-25T09:15:06;1.00;;;0.90;;
23123;SDS011;11731;48.592;8.858;2023-04-25T09:17:35;0.80;;;0.80;;
23123;SDS011;11731;48.592;8.858;2023-04-25T09:20:05;1.07;;;0.97;;
23123;SDS011;11731;48.592;8.858;2023-04-25T09:22:34;1.27;;;1.00;;
23123;SDS011;11731;48.592;8.858;2023-04-25T09:25:03;1.27;;;0.87;;
23123;SDS011;11731;48.592;8.858;2023-04-25T09:27:34;0.80;;;0.80;;
23123;SDS011;11731;48.592;8.858;2023-04-25T09:30:01;0.70;;;0.70;;
23123;SDS011;11731;48.592;8.858;2023-04-25T09:32:29;0.70;;;0.60;;
23123;SDS011;11731;48.592;8.858;2023-04-25T09:34:56;0.60;;;0.60;;
23123;SDS011;11731;48.592;8.858;2023-04-25T09:37:24;0.50;;;0.50;;
23123;SDS011;11731;48.592;8.858;2023-04-25T09:39:53;0.73;;;0.70;;
23123;SDS011;11731;48.592;8.858;2023-04-25T09:42:23;0.63;;;0.63;;
23123;SDS011;11731;48.592;8.858;2023-04-25T09:44:52;1.23;;;0.70;;
23123;SDS011;11731;48.592;8.858;2023-04-25T09:47:19;0.60;;;0.60;;
23123;SDS011;11731;48.592;8.858;2023-04-25T09:49:48;0.50;;;0.50;;
23123;SDS011;11731;48.592;8.858;2023-04-25T09:52:16;0.30;;;0.30;;
23123;SDS011;11731;48.592;8.858;2023-04-25T09:54:44;0.40;;;0.40;;
23123;SDS011;11731;48.592;8.858;2023-04-25T09:57:12;0.40;;;0.40;;
23123;SDS011;11731;48.592;8.858;2023-04-25T09:59:44;1.47;;;0.40;;
23123;SDS011;11731;48.592;8.858;2023-04-25T10:02:12;0.30;;;0.30;;
23123;SDS011;11731;48.592;8.858;2023-04-25T10:04:40;0.40;;;0.30;;
23123;SDS011;11731;48.592;8.858;2023-04-25T10:07:08;0.30;;;0.30;;
23123;SDS011;11731;48.592;8.858;2023-04-25T10:09:36;0.43;;;0.43;;
23123;SDS011;11731;48.592;8.858;2023-04-25T10:12:05;0.33;;;0.33;;
23123;SDS011;11731;48.592;8.858;2023-04-25T10:14:33;0.50;;;0.47;;
23123;SDS011;11731;48.592;8.858;2023-04-25T10:17:01;1.23;;;0.40;;
23123;SDS011;11731;48.592;8.858;2023-04-25T10:19:29;0.63;;;0.60;;
23123;SDS011;11731;48.592;8.858;2023-04-25T10:21:58;1.37;;;0.90;;
23123;SDS011;11731;48.592;8.858;2023-04-25T10:24:30;1.00;;;0.70;;
23123;SDS011;11731;48.592;8.858;2023-04-25T10:26:57;0.50;;;0.50;;
23123;SDS011;11731;48.592;8.858;2023-04-25T10:29:26;0.40;;;0.40;;
23123;SDS011;11731;48.592;8.858;2023-04-25T10:31:53;0.80;;;0.70;;
23123;SDS011;11731;48.592;8.858;2023-04-25T10:34:24;0.50;;;0.50;;
23123;SDS011;11731;48.592;8.858;2023-04-25T10:37:04;0.50;;;0.50;;
23123;SDS011;11731;48.592;8.858;2023-04-25T10:39:34;0.30;;;0.30;;
23123;SDS011;11731;48.592;8.858;2023-04-25T10:42:01;0.80;;;0.70;;
23123;SDS011;11731;48.592;8.858;2023-04-25T10:44:29;0.93;;;0.80;;
23123;SDS011;11731;48.592;8.858;2023-04-25T10:46:56;0.70;;;0.70;;
23123;SDS011;11731;48.592;8.858;2023-04-25T10:49:29;0.60;;;0.60;;
23123;SDS011;11731;48.592;8.858;2023-04-25T10:52:10;0.33;;;0.33;;
23123;SDS011;11731;48.592;8.858;2023-04-25T10:54:42;0.30;;;0.30;;
23123;SDS011;11731;48.592;8.858;2023-04-25T11:00:12;0.47;;;0.43;;
23123;SDS011;11731;48.592;8.858;2023-04-25T11:02:40;0.40;;;0.40;;
23123;SDS011;11731;48.592;8.858;2023-04-25T11:05:12;0.37;;;0.37;;
23123;SDS011;11731;48.592;8.858;2023-04-25T11:07:49;0.23;;;0.20;;
23123;SDS011;11731;48.592;8.858;2023-04-25T11:10:18;0.97;;;0.30;;
23123;SDS011;11731;48.592;8.858;2023-04-25T11:12:45;0.40;;;0.40;;
23123;SDS011;11731;48.592;8.858;2023-04-25T11:15:13;0.40;;;0.40;;
23123;SDS011;11731;48.592;8.858;2023-04-25T11:17:40;0.20;;;0.20;;
23123;SDS011;11731;48.592;8.858;2023-04-25T11:20:09;0.47;;;0.47;;
23123;SDS011;11731;48.592;8.858;2023-04-25T11:22:39;0.63;;;0.63;;
23123;SDS011;11731;48.592;8.858;2023-04-25T11:25:07;0.40;;;0.40;;
23123;SDS011;11731;48.592;8.858;2023-04-25T11:27:37;0.50;;;0.50;;
23123;SDS011;11731;48.592;8.858;2023-04-25T11:30:12;1.70;;;0.80;;
23123;SDS011;11731;48.592;8.858;2023-04-25T11:32:41;0.93;;;0.50;;
23123;SDS011;11731;48.592;8.858;2023-04-25T11:35:08;0.30;;;0.30;;
23123;SDS011;11731;48.592;8.858;2023-04-25T11:37:37;0.70;;;0.70;;
23123;SDS011;11731;48.592;8.858;2023-04-25T11:40:06;0.50;;;0.50;;
23123;SDS011;11731;48.592;8.858;2023-04-25T11:42:35;0.77;;;0.50;;
23123;SDS011;11731;48.592;8.858;2023-04-25T11:45:03;0.60;;;0.60;;
23123;SDS011;11731;48.592;8.858;2023-04-25T11:47:32;0.60;;;0.60;;
23123;SDS011;11731;48.592;8.858;2023-04-25T11:50:00;0.50;;;0.50;;
23123;SDS011;11731;48.592;8.858;2023-04-25T11:52:35;0.70;;;0.60;;
23123;SDS011;11731;48.592;8.858;2023-04-25T11:55:05;2.27;;;0.80;;
23123;SDS011;11731;48.592;8.858;2023-04-25T12:05:23;1.20;;;1.10;;
23123;SDS011;11731;48.592;8.858;2023-04-25T12:18:08;1.53;;;1.43;;
23123;SDS011;11731;48.592;8.858;2023-04-25T12:21:16;3.23;;;1.97;;
23123;SDS011;11731;48.592;8.858;2023-04-25T12:27:09;1.87;;;1.47;;
23123;SDS011;11731;48.592;8.858;2023-04-25T12:29:38;2.77;;;2.20;;
23123;SDS011;11731;48.592;8.858;2023-04-25T12:32:05;3.83;;;1.83;;
23123;SDS011;11731;48.592;8.858;2023-04-25T12:34:33;3.10;;;1.80;;
23123;SDS011;11731;48.592;8.858;2023-04-25T12:37:03;1.67;;;1.57;;
23123;SDS011;11731;48.592;8.858;2023-04-25T12:39:30;1.90;;;1.70;;
23123;SDS011;11731;48.592;8.858;2023-04-25T12:41:57;2.43;;;1.67;;
23123;SDS011;11731;48.592;8.858;2023-04-25T12:44:24;2.10;;;1.90;;
23123;SDS011;11731;48.592;8.858;2023-04-25T12:52:41;2.70;;;1.83;;
23123;SDS011;11731;48.592;8.858;2023-04-25T12:55:08;1.57;;;1.47;;
23123;SDS011;11731;48.592;8.858;2023-04-25T12:58:15;1.30;;;1.20;;
23123;SDS011;11731;48.592;8.858;2023-04-25T13:01:17;1.50;;;1.40;;
23123;SDS011;11731;48.592;8.858;2023-04-25T13:03:38;2.40;;;1.50;;
23123;SDS011;11731;48.592;8.858;2023-04-25T13:06:06;2.77;;;1.50;;
23123;SDS011;11731;48.592;8.858;2023-04-25T13:08:34;1.83;;;1.70;;
23123;SDS011;11731;48.592;8.858;2023-04-25T13:17:00;2.10;;;1.90;;
23123;SDS011;11731;48.592;8.858;2023-04-25T13:19:27;2.10;;;1.90;;
23123;SDS011;11731;48.592;8.858;2023-04-25T13:25:52;3.20;;;1.60;;
23123;SDS011;11731;48.592;8.858;2023-04-25T13:32:08;2.40;;;1.40;;
23123;SDS011;11731;48.592;8.858;2023-04-25T13:40:39;1.30;;;1.20;;
23123;SDS011;11731;48.592;8.858;2023-04-25T13:43:14;1.40;;;1.30;;
23123;SDS011;11731;48.592;8.858;2023-04-25T13:45:44;2.60;;;2.40;;
23123;SDS011;11731;48.592;8.858;2023-04-25T13:48:11;2.23;;;2.03;;
23123;SDS011;11731;48.592;8.858;2023-04-25T13:50:38;2.83;;;2.00;;
23123;SDS011;11731;48.592;8.858;2023-04-25T13:55:35;3.00;;;2.27;;
23123;SDS011;11731;48.592;8.858;2023-04-25T13:58:57;3.20;;;2.57;;
23123;SDS011;11731;48.592;8.858;2023-04-25T14:03:02;2.50;;;2.27;;
23123;SDS011;11731;48.592;8.858;2023-04-25T14:05:37;2.40;;;2.20;;
23123;SDS011;11731;48.592;8.858;2023-04-25T14:08:21;2.97;;;2.67;;
23123;SDS011;11731;48.592;8.858;2023-04-25T14:10:48;2.57;;;2.37;;
23123;SDS011;11731;48.592;8.858;2023-04-25T14:13:23;2.57;;;2.20;;
23123;SDS011;11731;48.592;8.858;2023-04-25T14:19:40;2.27;;;2.07;;
23123;SDS011;11731;48.592;8.858;2023-04-25T14:24:30;2.30;;;2.10;;
23123;SDS011;11731;48.592;8.858;2023-04-25T14:25:42;2.93;;;2.10;;
23123;SDS011;11731;48.592;8.858;2023-04-25T14:28:12;2.47;;;2.20;;
23123;SDS011;11731;48.592;8.858;2023-04-25T14:31:11;4.60;;;2.30;;
23123;SDS011;11731;48.592;8.858;2023-04-25T14:33:31;2.50;;;2.30;;
23123;SDS011;11731;48.592;8.858;2023-04-25T14:42:03;1.90;;;1.70;;
23123;SDS011;11731;48.592;8.858;2023-04-25T14:45:35;2.90;;;1.83;;
23123;SDS011;11731;48.592;8.858;2023-04-25T14:47:58;2.33;;;1.97;;
23123;SDS011;11731;48.592;8.858;2023-04-25T14:51:27;1.73;;;1.63;;
23123;SDS011;11731;48.592;8.858;2023-04-25T15:00:07;3.13;;;1.80;;
23123;SDS011;11731;48.592;8.858;2023-04-25T15:02:36;2.13;;;1.93;;
23123;SDS011;11731;48.592;8.858;2023-04-25T15:05:03;1.97;;;1.80;;
23123;SDS011;11731;48.592;8.858;2023-04-25T15:07:31;1.97;;;1.60;;
23123;SDS011;11731;48.592;8.858;2023-04-25T15:12:36;1.37;;;1.27;;
23123;SDS011;11731;48.592;8.858;2023-04-25T15:15:03;1.70;;;1.60;;
23123;SDS011;11731;48.592;8.858;2023-04-25T15:17:36;1.70;;;1.60;;
23123;SDS011;11731;48.592;8.858;2023-04-25T15:20:27;1.53;;;1.37;;
23123;SDS011;11731;48.592;8.858;2023-04-25T15:23:13;1.30;;;1.20;;
23123;SDS011;11731;48.592;8.858;2023-04-25T15:25:40;1.90;;;1.30;;
23123;SDS011;11731;48.592;8.858;2023-04-25T15:28:10;1.00;;;0.90;;
23123;SDS011;11731;48.592;8.858;2023-04-25T15:31:19;0.80;;;0.80;;
23123;SDS011;11731;48.592;8.858;2023-04-25T15:33:56;1.23;;;1.13;;
23123;SDS011;11731;48.592;8.858;2023-04-25T15:36:23;2.07;;;1.20;;
23123;SDS011;11731;48.592;8.858;2023-04-25T15:38:50;1.20;;;1.10;;
23123;SDS011;11731;48.592;8.858;2023-04-25T15:41:17;1.20;;;1.00;;
23123;SDS011;11731;48.592;8.858;2023-04-25T15:43:45;1.03;;;0.90;;
23123;SDS011;11731;48.592;8.858;2023-04-25T15:46:15;0.90;;;0.90;;
23123;SDS011;11731;48.592;8.858;2023-04-25T15:49:18;1.40;;;1.20;;
23123;SDS011;11731;48.592;8.858;2023-04-25T15:51:54;1.37;;;1.00;;
23123;SDS011;11731;48.592;8.858;2023-04-25T15:54:21;0.90;;;0.90;;
23123;SDS011;11731;48.592;8.858;2023-04-25T15:56:56;0.93;;;0.90;;
23123;SDS011;11731;48.592;8.858;2023-04-25T15:59:23;1.03;;;0.97;;
23123;SDS011;11731;48.592;8.858;2023-04-25T16:01:50;1.10;;;1.00;;
23123;SDS011;11731;48.592;8.858;2023-04-25T16:07:32;0.80;;;0.80;;
23123;SDS011;11731;48.592;8.858;2023-04-25T16:09:59;0.80;;;0.80;;
23123;SDS011;11731;48.592;8.858;2023-04-25T16:12:25;0.93;;;0.83;;
23123;SDS011;11731;48.592;8.858;2023-04-25T16:15:32;1.07;;;0.97;;
23123;SDS011;11731;48.592;8.858;2023-04-25T16:17:59;0.73;;;0.73;;